createdAt,value
2022-11-05T00:01:39.738Z,9.26
2022-11-05T00:06:38.888Z,9.25
2022-11-05T00:11:38.764Z,9.29
2022-11-05T00:16:39.043Z,9.29
2022-11-05T00:21:38.765Z,9.30
2022-11-05T00:26:30.537Z,9.28
2022-11-05T00:31:29.101Z,9.31
2022-11-05T00:36:29.573Z,9.25
2022-11-05T00:41:28.914Z,9.30
2022-11-05T00:46:29.259Z,9.24
2022-11-05T00:51:28.937Z,9.28
2022-11-05T00:56:28.952Z,9.35
2022-11-05T01:01:29.269Z,9.31
2022-11-05T01:06:28.877Z,9.29
2022-11-05T01:11:32.194Z,9.28
2022-11-05T01:16:29.225Z,9.27
2022-11-05T01:21:29.039Z,9.23
2022-11-05T01:26:29.481Z,9.23
2022-11-05T01:31:29.002Z,9.19
2022-11-05T01:36:28.950Z,9.24
2022-11-05T01:41:29.242Z,9.23
2022-11-05T01:46:35.808Z,9.22
2022-11-05T01:51:29.205Z,9.18
2022-11-05T01:56:34.827Z,9.26
2022-11-05T02:01:29.239Z,9.23
2022-11-05T02:06:31.357Z,9.23
2022-11-05T02:11:29.070Z,9.21
2022-11-05T02:16:38.153Z,9.20
2022-11-05T02:21:48.834Z,9.14
2022-11-05T02:26:48.677Z,9.07
2022-11-05T02:31:36.184Z,9.10
2022-11-05T02:36:39.830Z,9.11
2022-11-05T02:41:39.170Z,9.07
2022-11-05T02:46:39.062Z,8.98
2022-11-05T02:51:34.374Z,8.94
2022-11-05T02:56:32.062Z,8.96
2022-11-05T03:01:29.468Z,8.93
2022-11-05T03:06:48.679Z,8.87
2022-11-05T03:11:32.023Z,8.92
2022-11-05T03:16:37.825Z,8.96
2022-11-05T03:21:39.812Z,8.89
2022-11-05T03:26:32.703Z,8.83
2022-11-05T03:31:30.391Z,8.78
2022-11-05T03:36:32.638Z,8.78
2022-11-05T03:41:30.616Z,8.69
2022-11-05T03:46:34.208Z,8.70
2022-11-05T03:51:37.595Z,8.77
2022-11-05T03:56:35.287Z,8.72
2022-11-05T04:01:29.744Z,8.72
2022-11-05T04:06:38.631Z,8.80
2022-11-05T04:11:38.543Z,8.84
2022-11-05T04:16:38.843Z,8.83
2022-11-05T04:21:38.626Z,8.85
2022-11-05T04:26:28.970Z,8.91
2022-11-05T04:31:29.083Z,8.82
2022-11-05T04:36:29.654Z,8.79
2022-11-05T04:41:28.984Z,8.79
2022-11-05T04:46:29.066Z,8.62
2022-11-05T04:51:28.739Z,8.65
2022-11-05T04:56:28.792Z,8.75
2022-11-05T05:01:29.156Z,8.81
2022-11-05T05:06:28.733Z,8.86
2022-11-05T05:11:28.908Z,8.84
2022-11-05T05:16:29.085Z,8.80
2022-11-05T05:21:39.093Z,8.76
2022-11-05T05:26:28.843Z,8.79
2022-11-05T05:31:29.013Z,8.68
2022-11-05T05:36:29.022Z,8.58
2022-11-05T05:41:28.689Z,8.36
2022-11-05T05:46:29.110Z,8.41
2022-11-05T05:51:28.680Z,8.32
2022-11-05T05:56:28.746Z,8.14
2022-11-05T06:01:29.162Z,8.21
2022-11-05T06:06:29.192Z,8.01
2022-11-05T06:11:28.704Z,8.12
2022-11-05T06:16:34.801Z,7.98
2022-11-05T06:21:28.685Z,8.08
2022-11-05T06:26:28.836Z,8.21
2022-11-05T06:31:29.018Z,8.30
2022-11-05T06:36:28.682Z,8.26
2022-11-05T06:41:28.801Z,8.33
2022-11-05T06:46:28.781Z,8.33
2022-11-05T06:51:29.361Z,8.32
2022-11-05T06:56:28.947Z,8.24
2022-11-05T07:01:29.073Z,8.23
2022-11-05T07:06:33.010Z,8.26
2022-11-05T07:11:28.805Z,8.33
2022-11-05T07:16:28.784Z,8.47
2022-11-05T07:21:28.633Z,8.51
2022-11-05T07:26:34.272Z,8.57
2022-11-05T07:31:28.743Z,8.45
2022-11-05T07:36:28.695Z,8.36
2022-11-05T07:41:28.865Z,8.31
2022-11-05T07:46:28.958Z,8.34
2022-11-05T07:51:28.725Z,8.44
2022-11-05T07:56:29.026Z,8.54
2022-11-05T08:01:29.047Z,8.63
2022-11-05T08:06:28.766Z,8.66
2022-11-05T08:11:29.172Z,8.75
2022-11-05T08:16:28.693Z,8.78
2022-11-05T08:21:28.802Z,8.78
2022-11-05T08:26:29.048Z,8.84
2022-11-05T08:31:30.436Z,8.89
2022-11-05T08:36:28.737Z,8.92
2022-11-05T08:41:29.089Z,8.98
2022-11-05T08:46:28.570Z,8.97
2022-11-05T08:51:28.925Z,9.09
2022-11-05T08:56:29.233Z,9.19
2022-11-05T09:01:28.736Z,9.16
2022-11-05T09:06:28.940Z,9.19
2022-11-05T09:11:49.663Z,9.23
2022-11-05T09:16:29.080Z,9.28
2022-11-05T09:21:28.896Z,9.19
2022-11-05T09:26:28.867Z,9.26
2022-11-05T09:31:28.555Z,9.39
2022-11-05T09:36:28.594Z,9.41
2022-11-05T09:41:34.421Z,9.42
2022-11-05T09:46:37.919Z,9.38
2022-11-05T09:51:29.590Z,9.36
2022-11-05T09:56:31.249Z,9.41
2022-11-05T10:01:32.561Z,9.48
2022-11-05T10:06:28.696Z,9.56
2022-11-05T10:11:34.512Z,9.58
2022-11-05T10:16:31.541Z,9.57
2022-11-05T10:21:51.837Z,9.67
2022-11-05T10:26:29.054Z,9.70
2022-11-05T10:31:35.520Z,9.71
2022-11-05T10:36:31.179Z,9.66
2022-11-05T10:41:41.553Z,9.78
2022-11-05T10:46:35.149Z,9.86
2022-11-05T10:51:29.632Z,9.92
2022-11-05T10:56:35.076Z,9.93
2022-11-05T11:01:29.736Z,9.94
2022-11-05T11:06:30.989Z,9.99
2022-11-05T11:11:31.701Z,10.06
2022-11-05T11:16:37.426Z,10.14
2022-11-05T11:21:30.300Z,10.13
2022-11-05T11:26:31.611Z,10.17
2022-11-05T11:31:30.867Z,10.06
2022-11-05T11:36:34.300Z,10.03
2022-11-05T11:41:31.784Z,9.95
2022-11-05T11:46:32.098Z,9.89
2022-11-05T11:51:31.110Z,9.80
2022-11-05T11:56:29.582Z,9.88
2022-11-05T12:01:44.567Z,9.89
2022-11-05T12:06:35.056Z,9.92
2022-11-05T12:11:33.262Z,9.85
2022-11-05T12:16:40.889Z,9.75
2022-11-05T12:21:52.585Z,9.74
2022-11-05T12:26:39.810Z,9.61
2022-11-05T12:31:32.502Z,9.65
2022-11-05T12:36:38.166Z,9.66
2022-11-05T12:41:33.875Z,9.69
2022-11-05T12:46:34.353Z,9.69
2022-11-05T12:51:40.886Z,9.65
2022-11-05T12:56:34.253Z,9.56
2022-11-05T13:01:33.786Z,9.40
2022-11-05T13:06:34.751Z,9.34
2022-11-05T13:11:35.508Z,9.43
2022-11-05T13:16:33.053Z,9.42
2022-11-05T13:21:29.750Z,9.44
2022-11-05T13:26:37.899Z,9.42
2022-11-05T13:31:32.511Z,9.31
2022-11-05T13:36:43.331Z,9.39
2022-11-05T13:41:43.902Z,9.50
2022-11-05T13:46:40.065Z,9.54
2022-11-05T13:51:42.469Z,9.64
2022-11-05T13:56:40.742Z,9.66
2022-11-05T14:01:44.626Z,9.68
2022-11-05T14:06:30.991Z,9.75
2022-11-05T14:11:31.328Z,9.75
2022-11-05T14:16:46.556Z,9.77
2022-11-05T14:21:31.370Z,9.83
2022-11-05T14:26:32.139Z,9.85
2022-11-05T14:31:54.554Z,9.88
2022-11-05T14:36:31.849Z,9.89
2022-11-05T14:41:28.804Z,9.91
2022-11-05T14:46:39.954Z,9.86
2022-11-05T14:51:34.795Z,9.83
2022-11-05T14:56:39.122Z,9.80
2022-11-05T15:01:48.269Z,9.73
2022-11-05T15:06:31.867Z,9.74
2022-11-05T15:11:32.630Z,9.68
2022-11-05T15:16:32.874Z,9.71
2022-11-05T15:21:32.276Z,9.72
2022-11-05T15:26:39.648Z,9.71
2022-11-05T15:31:32.422Z,9.69
2022-11-05T15:36:30.006Z,9.65
2022-11-05T15:41:32.782Z,9.61
2022-11-05T15:46:29.201Z,9.59
2022-11-05T15:51:29.122Z,9.58
2022-11-05T15:56:33.154Z,9.57
2022-11-05T16:01:31.333Z,9.52
2022-11-05T16:06:36.093Z,9.51
2022-11-05T16:11:28.652Z,9.47
2022-11-05T16:16:33.160Z,9.47
2022-11-05T16:21:28.319Z,9.44
2022-11-05T16:27:01.306Z,9.42
2022-11-05T16:31:30.275Z,9.40
2022-11-05T16:36:30.124Z,9.31
2022-11-05T16:41:28.563Z,9.30
2022-11-05T16:46:29.792Z,9.30
2022-11-05T16:51:28.262Z,9.33
2022-11-05T16:56:28.527Z,9.29
2022-11-05T17:01:28.477Z,9.28
2022-11-05T17:06:28.501Z,9.31
2022-11-05T17:11:28.655Z,9.32
2022-11-05T17:16:28.379Z,9.29
2022-11-05T17:21:28.335Z,9.23
2022-11-05T17:26:28.756Z,9.26
2022-11-05T17:31:28.213Z,9.28
2022-11-05T17:36:28.378Z,9.32
2022-11-05T17:41:28.607Z,9.34
2022-11-05T17:46:28.205Z,9.35
2022-11-05T17:51:28.339Z,9.37
2022-11-05T17:56:34.422Z,9.45
2022-11-05T18:01:30.203Z,9.46
2022-11-05T18:06:28.227Z,9.50
2022-11-05T18:11:29.698Z,9.58
2022-11-05T18:16:28.401Z,9.62
2022-11-05T18:21:28.469Z,9.61
2022-11-05T18:26:29.063Z,9.64
2022-11-05T18:31:28.351Z,9.70
2022-11-05T18:36:30.270Z,9.72
2022-11-05T18:41:28.848Z,9.74
2022-11-05T18:46:56.613Z,9.82
2022-11-05T18:51:28.376Z,9.84
2022-11-05T18:56:28.719Z,9.81
2022-11-05T19:01:29.007Z,9.73
2022-11-05T19:06:29.187Z,9.75
2022-11-05T19:11:28.718Z,9.78
2022-11-05T19:16:30.089Z,9.79
2022-11-05T19:21:28.943Z,9.81
2022-11-05T19:26:29.315Z,9.83
2022-11-05T19:31:29.443Z,9.79
2022-11-05T19:36:29.473Z,9.66
2022-11-05T19:41:28.706Z,9.62
2022-11-05T19:46:29.533Z,9.57
2022-11-05T19:51:30.209Z,9.61
2022-11-05T19:56:30.582Z,9.66
2022-11-05T20:01:29.432Z,9.63
2022-11-05T20:06:32.049Z,9.66
2022-11-05T20:11:29.004Z,9.65
2022-11-05T20:16:31.291Z,9.52
2022-11-05T20:21:28.675Z,9.51
2022-11-05T20:26:28.788Z,9.45
2022-11-05T20:31:28.176Z,9.56
2022-11-05T20:36:28.679Z,9.59
2022-11-05T20:41:29.672Z,9.53
2022-11-05T20:46:29.351Z,9.55
2022-11-05T20:51:28.989Z,9.59
2022-11-05T20:56:30.182Z,9.61
2022-11-05T21:01:30.489Z,9.62
2022-11-05T21:06:28.992Z,9.63
2022-11-05T21:11:28.628Z,9.67
2022-11-05T21:16:28.146Z,9.65
2022-11-05T21:21:28.487Z,9.61
2022-11-05T21:26:29.946Z,9.61
2022-11-05T21:31:28.133Z,9.65
2022-11-05T21:36:29.435Z,9.58
2022-11-05T21:41:28.091Z,9.64
2022-11-05T21:46:28.267Z,9.67
2022-11-05T21:51:38.540Z,9.68
2022-11-05T21:56:38.255Z,9.70
2022-11-05T22:01:28.339Z,9.67
2022-11-05T22:06:28.254Z,9.64
2022-11-05T22:11:28.075Z,9.62
2022-11-05T22:16:28.086Z,9.56
2022-11-05T22:21:28.490Z,9.51
2022-11-05T22:26:28.656Z,9.54
2022-11-05T22:31:31.909Z,9.47
2022-11-05T22:36:28.282Z,9.53
2022-11-05T22:41:28.388Z,9.54
2022-11-05T22:46:28.503Z,9.49
2022-11-05T22:51:31.409Z,9.42
2022-11-05T22:56:29.818Z,9.42
2022-11-05T23:01:28.479Z,9.43
2022-11-05T23:06:40.127Z,9.47
2022-11-05T23:11:35.134Z,9.44
2022-11-05T23:16:37.822Z,9.48
2022-11-05T23:21:38.104Z,9.45
2022-11-05T23:26:37.966Z,9.36
2022-11-05T23:31:37.874Z,9.33
2022-11-05T23:36:37.808Z,9.29
2022-11-05T23:41:37.803Z,9.28
2022-11-05T23:46:37.727Z,9.29
2022-11-05T23:51:28.191Z,9.25
2022-11-05T23:56:27.985Z,9.14
